Time;durP1;ratioP1;P1;durP2;ratioP2;P2;SDS_P1;SDS_P2;PMS_P1;PMS_P2;Temp;Humidity;BMP_temperature;BMP_pressure;BME280_temperature;BME280_humidity;BME280_pressure;Samples;Min_cycle;Max_cycle;Signal;HPM_P1;HPM_P2
2021/03/18 00:01:06;;;;;;;13.30;2.47;;;;;;;2.21;89.62;102919.91;5102587;28;20028;-77
2021/03/18 00:03:34;;;;;;;11.67;2.60;;;;;;;2.11;89.65;102928.34;5104355;27;20038;-77
2021/03/18 00:06:00;;;;;;;13.63;2.27;;;;;;;2.09;89.21;102934.91;5104300;28;20031;-77
2021/03/18 00:08:26;;;;;;;18.43;3.10;;;;;;;2.24;89.66;102925.25;5106288;28;20517;-78
2021/03/18 00:10:52;;;;;;;9.45;2.50;;;;;;;2.17;89.76;102923.81;5107519;28;20106;-78
2021/03/18 00:13:20;;;;;;;7.23;2.00;;;;;;;2.01;89.35;102926.59;5106192;28;20020;-78
2021/03/18 00:15:46;;;;;;;6.37;1.87;;;;;;;1.88;89.57;102911.91;5093030;28;20161;-77
2021/03/18 00:18:13;;;;;;;;;;;;;;;1.78;90.05;102911.81;5097719;28;20047;-78
2021/03/18 00:20:38;;;;;;;16.40;2.75;;;;;;;2.00;90.33;102908.72;5098506;28;19923;-77
2021/03/18 00:23:05;;;;;;;10.43;2.08;;;;;;;1.93;89.24;102906.34;5097643;28;20020;-78
2021/03/18 00:25:31;;;;;;;9.90;2.27;;;;;;;1.61;88.59;102904.28;5103138;28;20024;-78
2021/03/18 00:27:56;;;;;;;14.43;3.10;;;;;;;1.52;89.72;102891.69;5091251;28;20023;-78
2021/03/18 00:30:23;;;;;;;19.70;3.53;;;;;;;1.60;91.87;102894.91;5091538;28;20435;-76
2021/03/18 00:32:49;;;;;;;17.93;3.43;;;;;;;1.67;93.28;102887.16;5091257;28;20051;-78
2021/03/18 00:35:16;;;;;;;10.43;3.77;;;;;;;1.70;93.43;102882.38;5108367;28;20503;-79
2021/03/18 00:37:42;;;;;;;;;;;;;;;1.69;93.46;102875.53;5113373;28;20114;-77
2021/03/18 00:40:30;;;;;;;13.80;2.80;;;;;;;1.76;92.17;102885.47;5112711;28;19919;-78
2021/03/18 00:43:03;;;;;;;14.73;2.70;;;;;;;1.66;91.46;102885.38;5111590;28;20036;-78
2021/03/18 00:45:31;;;;;;;11.77;2.70;;;;;;;1.63;91.37;102877.50;5111538;28;20024;-77
2021/03/18 00:47:58;;;;;;;9.87;2.40;;;;;;;1.50;91.47;102870.38;5111394;28;20027;-77
2021/03/18 00:50:38;;;;;;;14.97;2.77;;;;;;;1.39;91.24;102880.28;5111125;28;20118;-77
2021/03/18 00:53:05;;;;;;;16.47;2.43;;;;;;;1.43;91.84;102879.81;5103316;28;20434;-77
2021/03/18 00:55:30;;;;;;;7.20;2.63;;;;;;;1.33;91.77;102874.66;5099446;28;20034;-77
2021/03/18 00:57:56;;;;;;;11.45;2.92;;;;;;;1.31;92.08;102873.63;5099835;28;20261;-78
2021/03/18 01:00:21;;;;;;;11.85;2.63;;;;;;;1.31;92.23;102873.63;5102182;28;20107;-76
2021/03/18 01:02:51;;;;;;;11.73;2.50;;;;;;;1.34;92.55;102874.78;5102441;28;20038;-77
2021/03/18 01:05:38;;;;;;;13.27;2.33;;;;;;;1.86;93.11;102877.03;5100577;28;20020;-77
2021/03/18 01:08:04;;;;;;;13.80;2.53;;;;;;;1.89;92.77;102879.84;5095418;28;20098;-78
2021/03/18 01:10:34;;;;;;;9.63;2.60;;;;;;;2.07;92.11;102884.06;5102169;28;20102;-78
2021/03/18 01:13:00;;;;;;;10.50;2.20;;;;;;;2.15;91.56;102889.81;5105216;28;20031;-77
2021/03/18 01:15:26;;;;;;;;;;;;;;;2.18;91.16;102890.97;5102306;28;20043;-77
2021/03/18 01:17:55;;;;;;;8.63;2.80;;;;;;;2.08;91.44;102887.50;5101922;28;19916;-77
2021/03/18 01:20:21;;;;;;;7.53;1.83;;;;;;;2.07;91.87;102890.78;5092367;28;20497;-76
2021/03/18 01:22:46;;;;;;;11.95;2.95;;;;;;;2.41;91.77;102894.69;5096034;28;20124;-77
2021/03/18 01:25:12;;;;;;;7.35;2.08;;;;;;;2.33;91.11;102896.56;5097952;28;20024;-78
2021/03/18 01:27:40;;;;;;;12.50;2.17;;;;;;;2.34;91.25;102890.72;5100382;28;20039;-77
2021/03/18 01:30:18;;;;;;;12.67;2.50;;;;;;;2.45;90.37;102889.16;5102591;28;20027;-77
2021/03/18 01:32:43;;;;;;;11.63;2.30;;;;;;;2.45;91.14;102896.75;5103576;28;20051;-77
2021/03/18 01:35:15;;;;;;;15.48;3.33;;;;;;;2.65;90.44;102898.53;5100048;28;20024;-77
2021/03/18 01:37:41;;;;;;;17.57;3.17;;;;;;;2.74;90.00;102891.72;5103455;28;20498;-77
2021/03/18 01:40:09;;;;;;;11.88;2.50;;;;;;;2.79;90.00;102895.53;5100701;28;20154;-78
2021/03/18 01:42:37;;;;;;;12.53;2.40;;;;;;;2.92;89.16;102883.16;5102037;28;20044;-77
2021/03/18 01:45:05;;;;;;;9.90;2.30;;;;;;;2.89;89.02;102875.28;5099863;28;20030;-77
2021/03/18 01:47:30;;;;;;;11.93;2.00;;;;;;;2.99;88.38;102869.38;5097990;28;20035;-77
2021/03/18 01:49:56;;;;;;;11.20;3.15;;;;;;;3.05;88.50;102870.78;5103623;28;20023;-77
2021/03/18 01:52:21;;;;;;;9.38;2.30;;;;;;;2.91;89.13;102866.16;5101774;28;20023;-77
2021/03/18 01:54:47;;;;;;;11.15;2.05;;;;;;;2.85;89.58;102860.53;5100634;28;20031;-77
2021/03/18 01:57:12;;;;;;;11.25;2.13;;;;;;;2.79;89.96;102855.84;5099109;28;20047;-77
2021/03/18 01:59:38;;;;;;;17.17;2.55;;;;;;;2.98;89.66;102858.34;5101607;28;20020;-77
2021/03/18 02:02:03;;;;;;;12.60;2.45;;;;;;;3.07;88.82;102856.56;5100251;28;20046;-78
2021/03/18 02:04:28;;;;;;;10.93;2.53;;;;;;;3.12;89.05;102852.78;5099281;28;20404;-78
2021/03/18 02:06:54;;;;;;;9.65;2.30;;;;;;;3.22;88.01;102849.34;5102049;28;20284;-78
2021/03/18 02:09:20;;;;;;;11.77;2.20;;;;;;;3.22;88.24;102839.19;5098775;28;20101;-77
2021/03/18 02:11:45;;;;;;;12.50;2.45;;;;;;;3.21;88.43;102837.41;5100667;28;20038;-77
2021/03/18 02:14:11;;;;;;;10.48;1.80;;;;;;;3.23;88.82;102829.94;5106139;28;20035;-80
2021/03/18 02:16:41;;;;;;;14.07;2.20;;;;;;;3.25;88.90;102836.94;5102242;28;20028;-79
2021/03/18 02:19:22;;;;;;;11.20;2.20;;;;;;;3.32;89.47;102828.19;5101520;28;20032;-79
2021/03/18 02:22:09;;;;;;;10.43;2.00;;;;;;;3.35;89.47;102831.00;5099659;28;20024;-78
2021/03/18 02:24:55;;;;;;;9.23;2.00;;;;;;;3.46;89.07;102836.97;5103240;28;20034;-78
2021/03/18 02:27:58;;;;;;;10.13;2.33;;;;;;;3.47;89.34;102857.41;5102272;28;20031;-78
2021/03/18 02:30:26;;;;;;;12.77;2.33;;;;;;;3.42;90.18;102848.53;5103277;28;20143;-77
2021/03/18 02:33:13;;;;;;;14.23;2.53;;;;;;;3.28;90.01;102837.22;5099854;28;20544;-78
2021/03/18 02:35:46;;;;;;;;;;;;;;;3.20;90.37;102830.56;5101176;28;20106;-78
2021/03/18 02:38:31;;;;;;;11.10;2.30;;;;;;;3.16;91.02;102822.56;5105650;28;19922;-79
2021/03/18 02:41:13;;;;;;;12.90;2.67;;;;;;;3.09;91.35;102819.50;5104028;28;20063;-78
2021/03/18 02:43:45;;;;;;;8.90;1.93;;;;;;;3.05;91.84;102811.50;5104412;28;20039;-79
2021/03/18 02:46:11;;;;;;;9.30;2.13;;;;;;;2.99;92.15;102806.78;5095692;28;20059;-79
2021/03/18 02:48:38;;;;;;;12.40;1.80;;;;;;;3.00;92.34;102811.13;5103170;28;20469;-79
2021/03/18 02:51:11;;;;;;;18.77;3.03;;;;;;;2.96;92.55;102806.53;5100654;28;20063;-78
2021/03/18 02:53:39;;;;;;;12.03;2.20;;;;;;;2.94;92.65;102800.44;5093461;28;20047;-78
2021/03/18 02:56:05;;;;;;;12.10;3.13;;;;;;;2.98;93.06;102786.34;5101885;28;20494;-79
2021/03/18 02:58:35;;;;;;;8.65;2.20;;;;;;;2.98;92.91;102784.72;5090434;28;20028;-79
2021/03/18 03:01:05;;;;;;;12.70;2.47;;;;;;;2.98;92.80;102797.41;5098857;28;20442;-79
2021/03/18 03:03:32;;;;;;;11.50;2.17;;;;;;;2.98;92.74;102796.50;5102572;28;20511;-79
2021/03/18 03:06:00;;;;;;;11.93;2.80;;;;;;;2.95;92.49;102798.78;5102085;28;20030;-78
2021/03/18 03:08:29;;;;;;;10.23;2.03;;;;;;;2.91;92.77;102806.88;5100562;28;20424;-79
2021/03/18 03:11:02;;;;;;;12.30;2.67;;;;;;;2.86;92.42;102805.59;5101201;28;20026;-79
2021/03/18 03:13:33;;;;;;;12.60;2.37;;;;;;;2.83;92.67;102805.34;5103477;28;20028;-79
2021/03/18 03:16:05;;;;;;;11.10;2.40;;;;;;;2.82;92.64;102801.91;5102933;28;20027;-79
2021/03/18 03:18:36;;;;;;;9.33;2.30;;;;;;;2.78;92.56;102789.72;5107358;28;20024;-78
2021/03/18 03:21:05;;;;;;;11.10;2.33;;;;;;;2.78;92.76;102787.19;5104429;28;20406;-80
2021/03/18 03:23:34;;;;;;;10.77;2.27;;;;;;;2.73;92.39;102781.72;5103031;28;20028;-79
2021/03/18 03:26:01;;;;;;;13.63;3.00;;;;;;;2.71;92.35;102777.25;5105957;28;20480;-79
2021/03/18 03:28:31;;;;;;;12.70;2.73;;;;;;;2.70;92.54;102780.56;5107809;28;20032;-79
2021/03/18 03:30:58;;;;;;;16.73;2.13;;;;;;;2.68;92.57;102790.59;5103161;28;20028;-79
2021/03/18 03:33:26;;;;;;;5.60;1.77;;;;;;;2.65;92.38;102779.28;5104627;28;20078;-79
2021/03/18 03:35:52;;;;;;;9.83;2.27;;;;;;;2.58;92.17;102784.56;5103641;28;20024;-79
2021/03/18 03:38:18;;;;;;;7.60;2.28;;;;;;;2.51;92.32;102785.69;5101593;28;20019;-80
2021/03/18 03:40:44;;;;;;;9.68;2.55;;;;;;;2.50;92.63;102779.72;5099676;28;20029;-79
2021/03/18 03:43:10;;;;;;;9.43;2.08;;;;;;;2.48;92.60;102781.22;5105840;28;20028;-80
2021/03/18 03:45:38;;;;;;;13.38;3.08;;;;;;;2.47;92.82;102788.72;5102938;28;20074;-79
2021/03/18 03:48:04;;;;;;;18.67;3.73;;;;;;;2.58;93.67;102797.25;5104800;28;20023;-79
2021/03/18 03:50:30;;;;;;;8.98;3.13;;;;;;;2.59;94.14;102799.03;5104393;28;20031;-78
2021/03/18 03:53:04;;;;;;;17.38;3.30;;;;;;;2.52;94.01;102791.63;5105946;28;20392;-79
2021/03/18 03:55:37;;;;;;;13.53;2.83;;;;;;;2.43;93.97;102782.47;5102700;28;20038;-80
2021/03/18 03:58:15;;;;;;;9.37;2.93;;;;;;;2.40;94.04;102779.69;5104761;28;20035;-80
2021/03/18 04:00:45;;;;;;;16.33;3.33;;;;;;;2.35;94.04;102772.44;5106316;28;20028;-79
2021/03/18 04:03:14;;;;;;;11.03;2.30;;;;;;;2.30;93.87;102774.56;5104923;28;20030;-79
2021/03/18 04:05:46;;;;;;;19.83;4.03;;;;;;;2.23;93.89;102767.16;5105635;28;20024;-79
2021/03/18 04:08:15;;;;;;;14.20;2.70;;;;;;;2.17;93.77;102776.75;5101545;28;20080;-79
2021/03/18 04:10:42;;;;;;;18.73;4.40;;;;;;;2.33;95.91;102767.22;5103234;28;20028;-78
2021/03/18 04:13:10;;;;;;;12.67;3.37;;;;;;;2.55;95.70;102761.47;5103010;28;20028;-79
2021/03/18 04:15:36;;;;;;;16.03;3.00;;;;;;;2.43;95.05;102758.75;5102193;28;20023;-79
2021/03/18 04:18:03;;;;;;;9.48;3.22;;;;;;;2.29;94.89;102759.22;5100567;28;20052;-79
2021/03/18 04:20:31;;;;;;;14.63;4.53;;;;;;;2.16;94.76;102769.91;5110406;28;20024;-80
2021/03/18 04:22:58;;;;;;;12.13;3.10;;;;;;;2.06;94.69;102759.72;5106151;28;20023;-79
2021/03/18 04:25:26;;;;;;;10.57;2.67;;;;;;;2.13;94.60;102750.25;5102656;28;20035;-80
2021/03/18 04:27:53;;;;;;;12.83;2.97;;;;;;;2.09;94.67;102748.22;5102530;28;20104;-79
2021/03/18 04:30:22;;;;;;;11.93;2.50;;;;;;;2.02;94.48;102739.94;5102839;28;20020;-79
2021/03/18 04:32:48;;;;;;;6.77;2.83;;;;;;;1.96;94.25;102744.47;5101005;28;20044;-79
2021/03/18 04:35:17;;;;;;;10.93;2.75;;;;;;;1.84;94.32;102739.19;5099725;28;20027;-80
2021/03/18 04:37:43;;;;;;;12.07;3.00;;;;;;;1.76;94.58;102735.97;5102694;28;20035;-80
2021/03/18 04:40:14;;;;;;;13.57;3.08;;;;;;;1.87;95.93;102747.94;5106175;28;20401;-79
2021/03/18 04:42:40;;;;;;;15.00;3.33;;;;;;;1.86;96.19;102751.22;5103210;28;20044;-80
2021/03/18 04:45:07;;;;;;;6.10;2.73;;;;;;;1.80;95.93;102747.25;5100811;28;20024;-79
2021/03/18 04:47:34;;;;;;;13.03;3.10;;;;;;;1.70;95.82;102732.91;5104359;28;20074;-80
2021/03/18 04:50:00;;;;;;;10.23;3.93;;;;;;;1.62;95.73;102743.06;5102491;28;20019;-80
2021/03/18 04:52:26;;;;;;;9.98;2.60;;;;;;;1.55;95.58;102739.09;5104988;28;20023;-80
2021/03/18 04:54:51;;;;;;;7.68;2.90;;;;;;;1.50;95.44;102737.81;5104845;28;20038;-80
2021/03/18 04:57:20;;;;;;;11.80;3.63;;;;;;;1.46;95.63;102734.09;5102629;28;20153;-79
2021/03/18 04:59:47;;;;;;;17.93;3.97;;;;;;;1.42;95.43;102736.22;5103226;28;20027;-78
2021/03/18 05:02:13;;;;;;;15.97;2.80;;;;;;;1.42;95.39;102729.53;5103212;28;20024;-79
2021/03/18 05:04:40;;;;;;;11.48;3.72;;;;;;;1.44;95.82;102737.25;5104338;28;20026;-79
2021/03/18 05:07:06;;;;;;;13.87;4.67;;;;;;;1.45;95.67;102739.03;5096368;28;20492;-79
2021/03/18 05:09:33;;;;;;;20.23;5.65;;;;;;;1.48;95.53;102736.78;5101906;28;20024;-79
2021/03/18 05:12:00;;;;;;;14.03;4.63;;;;;;;1.49;95.83;102729.31;5100447;28;20024;-79
2021/03/18 05:14:27;;;;;;;13.43;5.37;;;;;;;1.53;95.85;102720.34;5104965;28;20086;-80
2021/03/18 05:16:54;;;;;;;16.20;5.53;;;;;;;1.56;95.89;102716.44;5103515;28;20396;-79
2021/03/18 05:19:20;;;;;;;15.90;5.47;;;;;;;1.64;95.98;102714.63;5098648;28;20052;-80
2021/03/18 05:21:46;;;;;;;19.75;5.97;;;;;;;1.70;96.16;102724.41;5107237;28;20056;-79
2021/03/18 05:24:13;;;;;;;18.37;6.33;;;;;;;1.73;96.13;102734.81;5103284;28;20024;-80
2021/03/18 05:26:40;;;;;;;25.03;6.93;;;;;;;1.76;96.32;102735.09;5104955;28;20020;-79
2021/03/18 05:29:06;;;;;;;24.10;8.37;;;;;;;1.88;96.38;102728.56;5102729;28;20365;-80
2021/03/18 05:31:31;;;;;;;17.95;6.88;;;;;;;1.99;96.72;102724.47;5106779;28;20396;-79
2021/03/18 05:33:57;;;;;;;16.65;7.43;;;;;;;2.04;96.57;102734.25;5106409;28;20023;-80
2021/03/18 05:36:22;;;;;;;16.85;7.20;;;;;;;2.06;96.66;102729.31;5105328;28;20024;-79
2021/03/18 05:38:48;;;;;;;20.65;7.57;;;;;;;2.11;96.76;102717.91;5100319;28;20031;-79
2021/03/18 05:41:14;;;;;;;21.92;8.02;;;;;;;2.12;97.21;102722.22;5102929;28;20019;-80
2021/03/18 05:43:40;;;;;;;21.67;7.32;;;;;;;2.15;96.84;102733.53;5105617;28;20031;-80
2021/03/18 05:46:05;;;;;;;26.17;7.80;;;;;;;2.19;96.93;102733.03;5099492;28;20016;-80
2021/03/18 05:48:32;;;;;;;28.08;8.57;;;;;;;2.45;97.08;102734.41;5103383;28;20388;-79
2021/03/18 05:50:57;;;;;;;19.38;7.95;;;;;;;2.46;96.80;102729.47;5106010;28;20105;-80
2021/03/18 05:53:24;;;;;;;20.27;8.10;;;;;;;2.42;96.86;102734.16;5102989;28;20079;-79
2021/03/18 05:55:53;;;;;;;23.27;8.50;;;;;;;2.40;96.89;102743.28;5100433;28;20400;-80
2021/03/18 05:58:23;;;;;;;19.40;8.53;;;;;;;2.49;96.88;102722.13;5104515;28;20024;-79
2021/03/18 06:00:50;;;;;;;25.50;9.53;;;;;;;2.52;96.89;102733.28;5106866;28;20019;-79
2021/03/18 06:03:17;;;;;;;22.73;8.20;;;;;;;2.52;96.79;102725.69;5103047;28;20023;-78
2021/03/18 06:05:43;;;;;;;27.00;8.23;;;;;;;2.58;96.88;102718.59;5105855;28;20034;-79
2021/03/18 06:08:08;;;;;;;31.40;9.65;;;;;;;2.61;96.82;102714.69;5101821;28;20028;-80
2021/03/18 06:10:34;;;;;;;21.27;7.47;;;;;;;2.65;96.76;102713.31;5099578;28;20094;-78
2021/03/18 06:13:00;;;;;;;22.80;8.75;;;;;;;2.70;96.91;102704.44;5100652;28;20558;-80
2021/03/18 06:15:26;;;;;;;24.63;8.07;;;;;;;2.74;96.62;102698.88;5097285;28;20389;-80
2021/03/18 06:17:53;;;;;;;23.73;7.32;;;;;;;2.86;96.34;102702.41;5101512;28;20030;-80
2021/03/18 06:20:28;;;;;;;26.90;8.83;;;;;;;2.86;96.42;102707.50;5106063;28;20034;-79
2021/03/18 06:22:54;;;;;;;25.37;7.93;;;;;;;2.88;96.31;102698.38;5101788;28;20038;-80
2021/03/18 06:25:25;;;;;;;21.07;7.37;;;;;;;2.90;96.06;102704.44;5100233;28;20078;-80
2021/03/18 06:28:23;;;;;;;19.13;7.40;;;;;;;3.00;96.30;102703.59;5099948;28;20416;-79
2021/03/18 06:30:58;;;;;;;21.58;7.25;;;;;;;3.02;96.33;102697.00;5102194;28;20027;-77
2021/03/18 06:33:28;;;;;;;22.73;7.13;;;;;;;3.06;96.26;102679.59;5101387;28;20508;-79
2021/03/18 06:35:54;;;;;;;23.80;6.73;;;;;;;3.10;96.02;102676.56;5100857;28;20028;-79
2021/03/18 06:38:32;;;;;;;22.42;7.47;;;;;;;3.18;95.86;102673.75;5099777;28;20028;-79
2021/03/18 06:40:59;;;;;;;23.27;8.70;;;;;;;3.22;96.18;102665.63;5103566;28;20024;-79
2021/03/18 06:43:43;;;;;;;20.03;7.33;;;;;;;3.28;96.07;102661.97;5101800;28;20043;-79
2021/03/18 06:46:14;;;;;;;24.23;8.53;;;;;;;3.32;96.05;102670.72;5110226;28;20020;-77
2021/03/18 06:48:39;;;;;;;21.03;7.03;;;;;;;3.33;96.00;102673.38;5114852;28;20541;-77
2021/03/18 06:51:22;;;;;;;19.02;6.53;;;;;;;3.37;95.79;102677.94;5113326;28;20024;-79
2021/03/18 06:53:48;;;;;;;23.37;8.07;;;;;;;3.41;95.51;102668.91;5099292;28;20024;-80
2021/03/18 06:56:26;;;;;;;21.30;7.15;;;;;;;3.46;95.49;102666.75;5099320;28;20396;-79
2021/03/18 06:58:53;;;;;;;30.83;8.03;;;;;;;3.54;95.25;102656.44;5102140;28;20023;-80
2021/03/18 07:01:26;;;;;;;;;;;;;;;3.57;95.33;102645.63;5105649;28;20055;-80
2021/03/18 07:04:01;;;;;;;24.73;7.00;;;;;;;3.57;95.16;102638.91;5109367;28;20288;-80
2021/03/18 07:06:29;;;;;;;20.13;7.77;;;;;;;3.60;95.37;102635.75;5102819;28;20024;-79
2021/03/18 07:09:07;;;;;;;31.53;8.37;;;;;;;3.64;95.25;102631.03;5099625;28;20023;-79
2021/03/18 07:11:38;;;;;;;32.90;8.23;;;;;;;3.73;95.02;102636.81;5105869;28;20480;-80
2021/03/18 07:14:04;;;;;;;33.40;9.13;;;;;;;3.79;94.70;102635.53;5099193;28;20477;-79
2021/03/18 07:16:43;;;;;;;;;;;;;;;3.88;94.42;102639.69;5107081;28;20043;-78
2021/03/18 07:19:08;;;;;;;28.50;8.80;;;;;;;3.85;94.33;102639.44;5099932;28;19922;-79
2021/03/18 07:21:37;;;;;;;22.80;8.45;;;;;;;3.97;94.18;102637.91;5097169;28;20020;-79
2021/03/18 07:24:03;;;;;;;22.53;8.00;;;;;;;3.99;94.09;102645.63;5102915;28;20020;-79
2021/03/18 07:26:29;;;;;;;20.70;8.43;;;;;;;4.01;94.01;102641.56;5104368;28;20026;-78
2021/03/18 07:29:24;;;;;;;24.13;8.32;;;;;;;4.09;94.06;102654.88;5101093;28;20028;-78
2021/03/18 07:31:49;;;;;;;26.37;8.63;;;;;;;4.20;94.07;102644.75;5096942;28;20493;-76
2021/03/18 07:34:15;;;;;;;26.38;8.82;;;;;;;4.23;94.10;102642.47;5091202;28;20027;-77
2021/03/18 07:36:41;;;;;;;32.45;9.23;;;;;;;4.35;93.69;102645.09;5092344;28;20028;-76
2021/03/18 07:39:08;;;;;;;25.05;9.02;;;;;;;4.48;93.36;102641.81;5092114;28;20028;-78
2021/03/18 07:41:34;;;;;;;27.33;9.07;;;;;;;4.61;92.87;102639.47;5095440;28;20035;-77
2021/03/18 07:44:01;;;;;;;22.73;8.53;;;;;;;4.77;91.89;102642.38;5108808;28;20023;-76
2021/03/18 07:46:28;;;;;;;30.50;8.30;;;;;;;4.82;91.43;102651.25;5109518;28;20034;-77
2021/03/18 07:49:04;;;;;;;41.67;9.67;;;;;;;4.92;90.95;102648.66;5105856;28;20099;-77
2021/03/18 07:51:31;;;;;;;27.88;8.35;;;;;;;4.91;91.21;102648.53;5098012;28;20024;-79
2021/03/18 07:53:59;;;;;;;27.83;8.93;;;;;;;4.90;91.50;102632.38;5102742;28;20026;-77
2021/03/18 07:56:26;;;;;;;27.77;8.77;;;;;;;4.93;91.53;102636.81;5099970;28;20023;-78
2021/03/18 07:58:53;;;;;;;34.15;8.75;;;;;;;4.90;91.16;102624.72;5097577;28;20020;-77
2021/03/18 08:01:28;;;;;;;25.60;8.37;;;;;;;5.03;91.38;102620.53;5099624;28;20028;-77
2021/03/18 08:03:54;;;;;;;29.60;8.97;;;;;;;5.05;91.53;102619.00;5106823;28;20026;-77
2021/03/18 08:06:38;;;;;;;34.40;8.98;;;;;;;5.22;91.36;102618.59;5100327;28;20031;-77
2021/03/18 08:09:04;;;;;;;28.97;8.07;;;;;;;5.16;91.02;102619.00;5111742;28;20031;-77
2021/03/18 08:11:33;;;;;;;32.47;8.02;;;;;;;5.27;90.41;102627.47;5111727;28;20399;-77
2021/03/18 08:14:15;;;;;;;25.63;8.37;;;;;;;5.35;89.58;102625.47;5104166;28;20573;-77
2021/03/18 08:16:41;;;;;;;25.53;7.40;;;;;;;5.37;89.75;102624.78;5104566;28;20035;-77
2021/03/18 08:19:12;;;;;;;30.20;7.47;;;;;;;5.41;89.91;102620.81;5104929;28;20027;-77
2021/03/18 08:21:42;;;;;;;25.17;6.77;;;;;;;5.49;90.65;102610.38;5099346;28;20020;-77
2021/03/18 08:24:12;;;;;;;28.80;8.43;;;;;;;5.73;89.02;102612.94;5102733;28;20119;-77
2021/03/18 08:26:38;;;;;;;31.20;8.13;;;;;;;5.77;89.04;102609.81;5105049;28;20019;-77
2021/03/18 08:29:13;;;;;;;33.30;7.40;;;;;;;5.84;88.49;102609.47;5104874;28;20019;-78
2021/03/18 08:31:46;;;;;;;28.73;7.20;;;;;;;5.87;88.97;102609.72;5106193;28;20020;-77
2021/03/18 08:34:12;;;;;;;27.73;8.17;;;;;;;5.92;88.71;102611.84;5102754;28;20550;-77
2021/03/18 08:36:39;;;;;;;23.13;6.97;;;;;;;6.02;87.61;102610.81;5100047;28;20027;-77
2021/03/18 08:39:29;;;;;;;25.73;6.73;;;;;;;6.08;87.95;102621.44;5105694;28;20024;-78
2021/03/18 08:41:55;;;;;;;32.97;8.17;;;;;;;6.14;87.31;102624.41;5105912;28;20168;-77
2021/03/18 08:44:24;;;;;;;23.23;7.30;;;;;;;6.14;87.65;102626.97;5098879;28;20484;-78
2021/03/18 08:46:57;;;;;;;28.47;7.63;;;;;;;6.20;86.95;102631.66;5100187;28;20115;-78
2021/03/18 08:49:43;;;;;;;26.43;7.03;;;;;;;6.21;87.36;102625.75;5098211;28;20030;-77
2021/03/18 08:52:20;;;;;;;24.27;6.57;;;;;;;6.14;87.22;102637.19;5106655;28;20032;-78
2021/03/18 08:54:51;;;;;;;21.67;6.88;;;;;;;6.18;86.71;102635.75;5101356;28;20045;-77
2021/03/18 08:57:22;;;;;;;24.20;6.80;;;;;;;6.14;87.34;102636.28;5101193;28;20373;-76
2021/03/18 08:59:50;;;;;;;25.63;6.30;;;;;;;6.22;87.07;102638.63;5100981;28;20019;-77
2021/03/18 09:02:19;;;;;;;32.90;6.80;;;;;;;6.31;86.78;102640.91;5099313;28;20501;-77
2021/03/18 09:04:45;;;;;;;25.97;5.40;;;;;;;6.39;86.28;102631.25;5101191;28;20385;-78
2021/03/18 09:07:22;;;;;;;32.60;7.97;;;;;;;6.38;86.98;102626.91;5099240;28;20396;-78
2021/03/18 09:10:09;;;;;;;22.73;4.57;;;;;;;6.54;85.27;102630.63;5102260;28;20042;-78
2021/03/18 09:12:46;;;;;;;15.10;4.13;;;;;;;6.50;84.30;102625.19;5096834;28;20027;-77
2021/03/18 09:15:14;;;;;;;23.80;4.30;;;;;;;6.50;85.08;102617.53;5104133;28;20023;-77
2021/03/18 09:17:40;;;;;;;19.33;4.03;;;;;;;6.68;84.15;102617.91;5099083;28;20031;-78
2021/03/18 09:20:09;;;;;;;22.45;4.05;;;;;;;6.76;83.85;102622.75;5102903;28;20020;-77
2021/03/18 09:22:34;;;;;;;17.60;4.13;;;;;;;6.78;82.70;102615.19;5097493;28;20059;-77
2021/03/18 09:25:00;;;;;;;20.92;4.22;;;;;;;6.90;83.61;102615.16;5103095;28;20115;-78
2021/03/18 09:27:35;;;;;;;16.67;3.47;;;;;;;6.99;83.49;102610.63;5105312;28;20027;-78
2021/03/18 09:30:19;;;;;;;23.40;4.40;;;;;;;7.15;82.24;102608.28;5105358;28;20024;-78
2021/03/18 09:32:45;;;;;;;15.07;3.90;;;;;;;7.20;80.91;102604.41;5092513;28;20023;-77
2021/03/18 09:35:12;;;;;;;15.57;3.97;;;;;;;7.17;82.29;102605.09;5100102;28;20035;-78
2021/03/18 09:37:38;;;;;;;18.13;4.30;;;;;;;7.07;83.46;102604.34;5103901;28;20026;-78
2021/03/18 09:40:04;;;;;;;;;;;;;;;7.16;83.05;102608.44;5102234;28;20040;-78
2021/03/18 09:42:30;;;;;;;10.40;2.73;;;;;;;7.16;81.26;102610.97;5104023;28;19954;-78
2021/03/18 09:44:57;;;;;;;11.02;2.63;;;;;;;7.02;81.48;102606.63;5099207;28;20078;-77
2021/03/18 09:47:22;;;;;;;16.30;3.40;;;;;;;6.86;81.16;102620.06;5102623;28;20028;-78
2021/03/18 09:49:51;;;;;;;8.85;1.60;;;;;;;6.68;81.23;102603.47;5100456;28;20049;-77
2021/03/18 09:52:28;;;;;;;7.17;1.37;;;;;;;6.61;82.05;102606.41;5094393;28;20385;-77
2021/03/18 09:54:58;;;;;;;9.20;2.20;;;;;;;6.64;81.87;102595.50;5098611;28;20066;-77
2021/03/18 09:57:28;;;;;;;7.43;1.57;;;;;;;6.71;83.29;102606.22;5099905;28;20020;-77
2021/03/18 09:59:53;;;;;;;8.63;1.50;;;;;;;6.76;82.13;102602.31;5100582;28;20110;-77
2021/03/18 10:02:26;;;;;;;8.60;1.35;;;;;;;6.86;81.49;102597.06;5099355;28;20062;-77
2021/03/18 10:04:51;;;;;;;16.67;3.00;;;;;;;6.99;81.02;102590.19;5101844;28;20461;-77
2021/03/18 10:07:17;;;;;;;8.02;1.48;;;;;;;7.09;80.39;102590.00;5101657;28;20031;-79
2021/03/18 10:09:45;;;;;;;8.23;1.85;;;;;;;7.25;80.04;102585.13;5097431;28;20027;-78
2021/03/18 10:12:14;;;;;;;10.20;1.40;;;;;;;7.37;79.62;102588.47;5103676;28;20099;-78
2021/03/18 10:14:45;;;;;;;8.13;1.63;;;;;;;7.28;78.84;102584.44;5101525;28;20026;-78
2021/03/18 10:17:26;;;;;;;10.27;2.00;;;;;;;7.23;80.00;102589.25;5100256;28;20528;-77
2021/03/18 10:20:00;;;;;;;11.67;1.80;;;;;;;7.21;79.87;102587.38;5101958;28;20055;-77
2021/03/18 10:22:36;;;;;;;10.97;2.43;;;;;;;7.18;78.72;102588.06;5101389;28;20626;-77
2021/03/18 10:25:15;;;;;;;7.95;1.88;;;;;;;7.17;79.46;102578.63;5103198;28;20016;-77
2021/03/18 10:27:48;;;;;;;12.10;2.67;;;;;;;6.99;80.49;102579.97;5105247;28;20024;-77
2021/03/18 10:30:22;;;;;;;13.87;2.43;;;;;;;6.92;80.90;102570.16;5101268;28;20020;-77
2021/03/18 10:33:15;;;;;;;13.17;2.30;;;;;;;6.84;81.59;102559.44;5102157;28;20492;-78
2021/03/18 10:35:46;;;;;;;14.03;2.17;;;;;;;6.85;82.02;102561.19;5109212;28;20020;-76
2021/03/18 10:38:18;;;;;;;10.40;2.77;;;;;;;6.94;81.98;102553.25;5103574;28;20020;-78
2021/03/18 10:40:46;;;;;;;11.10;2.70;;;;;;;6.88;81.30;102546.06;5103582;28;20020;-76
2021/03/18 10:43:25;;;;;;;12.63;3.07;;;;;;;6.97;81.88;102545.78;5097676;28;20016;-77
2021/03/18 10:45:53;;;;;;;8.03;2.63;;;;;;;6.97;83.07;102550.88;5112050;28;20031;-77
2021/03/18 10:48:24;;;;;;;8.93;1.90;;;;;;;6.98;83.27;102555.22;5103327;28;20023;-77
2021/03/18 10:50:51;;;;;;;8.13;1.50;;;;;;;7.05;82.60;102550.59;5109357;28;20031;-77
2021/03/18 10:53:19;;;;;;;11.00;1.80;;;;;;;7.10;83.35;102554.31;5105474;28;20027;-77
2021/03/18 10:55:51;;;;;;;4.60;1.00;;;;;;;7.08;82.72;102550.78;5100472;28;20027;-77
2021/03/18 10:58:20;;;;;;;7.90;1.73;;;;;;;7.14;82.75;102555.41;5100069;28;20031;-77
2021/03/18 11:00:47;;;;;;;7.50;1.17;;;;;;;7.31;82.61;102547.16;5105787;28;20034;-79
2021/03/18 11:03:14;;;;;;;5.57;1.40;;;;;;;7.58;82.59;102540.38;5101568;28;20477;-79
2021/03/18 11:05:51;;;;;;;8.47;1.23;;;;;;;7.98;80.67;102542.84;5104459;28;20431;-77
2021/03/18 11:08:25;;;;;;;4.75;1.05;;;;;;;8.02;79.35;102545.69;5102873;28;20066;-76
2021/03/18 11:10:51;;;;;;;6.23;1.23;;;;;;;7.95;79.36;102542.66;5102906;28;20397;-77
2021/03/18 11:13:22;;;;;;;5.22;1.10;;;;;;;7.86;78.86;102542.97;5101570;28;20023;-76
2021/03/18 11:15:52;;;;;;;6.00;1.00;;;;;;;7.72;79.89;102541.22;5100402;28;20035;-77
2021/03/18 11:18:24;;;;;;;9.50;1.60;;;;;;;7.70;78.97;102535.13;5100320;28;20556;-79
2021/03/18 11:20:49;;;;;;;4.67;1.10;;;;;;;7.48;79.94;102544.03;5102074;28;20036;-75
2021/03/18 11:23:24;;;;;;;5.15;1.13;;;;;;;7.42;80.72;102543.63;5106711;28;20043;-77
2021/03/18 11:25:55;;;;;;;8.13;1.30;;;;;;;7.29;79.76;102541.09;5099715;28;20599;-75
2021/03/18 11:28:21;;;;;;;6.97;1.00;;;;;;;7.17;81.10;102540.31;5103181;28;20039;-77
2021/03/18 11:30:46;;;;;;;3.37;0.80;;;;;;;7.07;81.61;102543.91;5106841;28;20103;-77
2021/03/18 11:33:20;;;;;;;4.77;1.10;;;;;;;7.02;82.75;102546.97;5104985;28;20365;-76
2021/03/18 11:35:51;;;;;;;3.30;1.00;;;;;;;7.09;83.71;102544.00;5099268;28;20389;-75
2021/03/18 11:38:18;;;;;;;5.90;1.00;;;;;;;7.14;85.04;102546.06;5105850;28;20387;-77
2021/03/18 11:40:46;;;;;;;7.33;1.40;;;;;;;7.18;84.68;102540.41;5105567;28;20022;-77